createdAt,value
2022-12-06T00:01:37.398Z,4.46
2022-12-06T00:06:40.443Z,4.47
2022-12-06T00:11:44.933Z,4.4
2022-12-06T00:16:48.312Z,4.38
2022-12-06T00:21:54.239Z,4.43
2022-12-06T00:32:59.905Z,4.35
2022-12-06T00:38:04.902Z,4.29
2022-12-06T00:43:10.780Z,4.26
2022-12-06T00:48:14.114Z,4.24
2022-12-06T00:59:21.912Z,4.26
2022-12-06T01:04:28.153Z,4.15
2022-12-06T01:09:33.732Z,4.18
2022-12-06T01:14:40.116Z,4.04
2022-12-06T01:19:43.486Z,4.05
2022-12-06T01:24:47.944Z,3.95
2022-12-06T01:29:54.083Z,4.07
2022-12-06T01:34:58.538Z,4.07
2022-12-06T01:40:04.492Z,4.18
2022-12-06T01:45:07.848Z,4.19
2022-12-06T01:50:19.721Z,4.13
2022-12-06T01:55:28.084Z,4.04
2022-12-06T02:00:38.112Z,4.14
2022-12-06T02:05:42.667Z,4.02
2022-12-06T02:10:48.634Z,3.88
2022-12-06T02:15:54.496Z,3.89
2022-12-06T02:20:58.910Z,3.87
2022-12-06T02:26:04.972Z,3.79
2022-12-06T02:31:10.904Z,3.85
2022-12-06T02:36:17.887Z,3.84
2022-12-06T02:41:22.734Z,3.81
2022-12-06T02:46:26.305Z,3.8
2022-12-06T02:51:32.427Z,3.74
2022-12-06T02:56:35.650Z,3.79
2022-12-06T03:01:42.547Z,3.74
2022-12-06T03:06:48.972Z,3.79
2022-12-06T03:11:52.330Z,3.78
2022-12-06T03:16:57.004Z,3.84
2022-12-06T03:22:00.577Z,3.81
2022-12-06T03:27:04.645Z,3.75
2022-12-06T03:32:11.792Z,3.85
2022-12-06T03:37:15.335Z,3.87
2022-12-06T03:42:18.642Z,3.9
2022-12-06T03:47:27.635Z,3.82
2022-12-06T03:52:33.746Z,3.82
2022-12-06T03:57:41.979Z,3.87
2022-12-06T04:02:48.042Z,3.77
2022-12-06T04:07:56.575Z,3.64
2022-12-06T04:13:00.112Z,3.61
2022-12-06T04:18:06.049Z,3.7
2022-12-06T04:23:14.471Z,3.83
2022-12-06T04:28:18.126Z,3.78
2022-12-06T04:33:24.233Z,3.74
2022-12-06T04:38:29.805Z,3.71
2022-12-06T04:49:41.490Z,3.66
2022-12-06T04:54:47.302Z,3.67
2022-12-06T04:59:53.165Z,3.6
2022-12-06T05:05:00.213Z,3.65
2022-12-06T05:10:03.831Z,3.68
2022-12-06T05:15:08.327Z,3.69
2022-12-06T05:20:12.960Z,3.71
2022-12-06T05:25:19.192Z,3.74
2022-12-06T05:30:23.876Z,3.7
2022-12-06T05:35:29.952Z,3.83
2022-12-06T05:40:33.378Z,3.78
2022-12-06T05:45:37.265Z,3.72
2022-12-06T05:50:45.613Z,3.68
2022-12-06T05:55:51.872Z,3.82
2022-12-06T06:00:55.514Z,3.83
2022-12-06T06:05:58.602Z,3.79
2022-12-06T06:11:04.623Z,3.8
2022-12-06T06:16:09.046Z,3.69
2022-12-06T06:21:15.119Z,3.73
2022-12-06T06:26:18.720Z,3.76
2022-12-06T06:31:21.447Z,3.87
2022-12-06T06:36:24.997Z,3.92
2022-12-06T06:41:28.274Z,3.73
2022-12-06T06:46:34.029Z,3.68
2022-12-06T06:51:39.978Z,3.56
2022-12-06T06:56:46.014Z,3.55
2022-12-06T07:02:00.270Z,3.51
2022-12-06T07:13:12.817Z,3.69
2022-12-06T07:24:22.571Z,3.85
2022-12-06T07:29:27.040Z,3.73
2022-12-06T07:34:32.741Z,3.79
2022-12-06T07:39:38.767Z,3.71
2022-12-06T07:44:44.942Z,3.72
2022-12-06T07:49:51.428Z,3.83
2022-12-06T07:54:54.736Z,3.86
2022-12-06T08:00:01.320Z,3.72
2022-12-06T08:05:07.059Z,3.72
2022-12-06T08:10:10.427Z,3.74
2022-12-06T08:15:13.878Z,3.73
2022-12-06T08:20:17.387Z,3.78
2022-12-06T08:25:20.677Z,3.97
2022-12-06T08:30:26.755Z,3.91
2022-12-06T08:35:34.433Z,3.88
2022-12-06T08:40:37.983Z,3.82
2022-12-06T08:45:43.356Z,3.93
2022-12-06T08:50:46.688Z,3.97
2022-12-06T08:55:57.411Z,4.03
2022-12-06T09:01:02.652Z,4.02
2022-12-06T09:11:13.711Z,4.14
2022-12-06T09:21:47.839Z,4.33
2022-12-06T09:26:51.117Z,4.27
2022-12-06T09:31:54.628Z,4.34
2022-12-06T09:36:58.339Z,4.36
2022-12-06T09:42:11.530Z,4.5
2022-12-06T09:47:15.001Z,4.49
2022-12-06T09:52:20.557Z,4.49
2022-12-06T09:57:27.559Z,4.42
2022-12-06T10:02:32.296Z,4.37
2022-12-06T10:07:35.735Z,4.42
2022-12-06T10:18:49.009Z,4.15
2022-12-06T10:23:53.448Z,4.14
2022-12-06T10:28:55.653Z,4.26
2022-12-06T10:34:01.762Z,4.47
2022-12-06T10:39:08.292Z,4.46
2022-12-06T10:44:15.240Z,4.53
2022-12-06T10:49:18.407Z,4.62
2022-12-06T10:54:24.943Z,4.6
2022-12-06T10:59:31.085Z,4.46
2022-12-06T11:04:36.450Z,4.5
2022-12-06T11:09:42.795Z,4.56
2022-12-06T11:14:49.706Z,4.52
2022-12-06T11:19:59.651Z,4.52
2022-12-06T11:25:05.521Z,4.63
2022-12-06T11:35:41.827Z,4.52
2022-12-06T11:40:44.900Z,4.35
2022-12-06T11:45:53.138Z,4.47
2022-12-06T11:51:01.433Z,4.68
2022-12-06T11:56:07.317Z,4.87
2022-12-06T12:01:10.980Z,4.87
2022-12-06T12:06:16.319Z,4.79
2022-12-06T12:11:23.332Z,4.92
2022-12-06T12:16:26.633Z,4.71
2022-12-06T12:21:29.735Z,4.46
2022-12-06T12:26:48.546Z,4.36
2022-12-06T12:31:56.687Z,4.47
2022-12-06T12:37:00.178Z,4.61
2022-12-06T12:42:03.262Z,4.59
2022-12-06T12:47:06.677Z,4.65
2022-12-06T12:52:14.536Z,4.63
2022-12-06T12:57:20.827Z,4.55
2022-12-06T13:02:29.168Z,4.54
2022-12-06T13:07:35.368Z,4.63
2022-12-06T13:12:38.885Z,4.81
2022-12-06T13:17:43.534Z,4.6
2022-12-06T13:22:46.858Z,4.66
2022-12-06T13:27:49.930Z,4.6
2022-12-06T13:32:56.086Z,4.7
2022-12-06T13:37:59.451Z,4.67
2022-12-06T13:43:02.528Z,4.62
2022-12-06T13:48:06.070Z,4.65
2022-12-06T13:53:09.324Z,4.56
2022-12-06T14:03:15.881Z,4.59
2022-12-06T14:13:22.570Z,4.48
2022-12-06T14:18:25.706Z,4.57
2022-12-06T14:23:28.917Z,4.44
2022-12-06T14:28:32.069Z,4.58
2022-12-06T14:33:35.693Z,4.54
2022-12-06T14:38:39.195Z,4.51
2022-12-06T14:43:42.505Z,4.27
2022-12-06T14:48:45.896Z,4.28
2022-12-06T14:53:49.230Z,4.3
2022-12-06T14:58:55.885Z,4.3
2022-12-06T15:03:59.349Z,4.24
2022-12-06T15:09:02.457Z,4.2
2022-12-06T15:14:06.202Z,4.25
2022-12-06T15:19:09.572Z,4.27
2022-12-06T15:24:12.874Z,4.24
2022-12-06T15:29:16.160Z,4.23
2022-12-06T15:34:20.879Z,4.31
2022-12-06T15:39:27.744Z,4.25
2022-12-06T15:44:45.727Z,4.25
2022-12-06T16:00:23.898Z,4.31
2022-12-06T16:11:13.803Z,4.38
2022-12-06T16:16:01.919Z,4.29
2022-12-06T16:21:06.518Z,4.28
2022-12-06T16:26:12.521Z,4.33
2022-12-06T16:31:17.077Z,4.37
2022-12-06T16:36:21.505Z,4.35
2022-12-06T16:41:26.813Z,4.34
2022-12-06T16:46:30.492Z,4.41
2022-12-06T16:51:34.844Z,4.39
2022-12-06T16:56:41.483Z,4.51
2022-12-06T17:01:41.203Z,4.52
2022-12-06T17:06:44.490Z,4.42
2022-12-06T17:11:49.502Z,4.38
2022-12-06T17:16:55.905Z,4.4
2022-12-06T17:22:05.142Z,4.54
2022-12-06T17:27:08.631Z,4.63
2022-12-06T17:37:44.083Z,4.73
2022-12-06T17:42:47.021Z,4.69
2022-12-06T17:47:50.423Z,4.75
2022-12-06T17:52:57.069Z,4.68
2022-12-06T17:58:02.450Z,4.68
2022-12-06T18:03:05.721Z,4.71
2022-12-06T18:08:09.272Z,4.7
2022-12-06T18:13:12.319Z,4.73
2022-12-06T18:18:21.765Z,4.79
2022-12-06T18:23:26.791Z,4.85
2022-12-06T18:34:45.489Z,4.98
2022-12-06T18:39:54.520Z,5
2022-12-06T18:45:10.056Z,5.01
2022-12-06T18:50:14.594Z,4.97
2022-12-06T19:06:25.431Z,5.05
2022-12-06T19:11:28.687Z,5.06
2022-12-06T19:16:31.911Z,4.99
2022-12-06T19:21:35.474Z,5.08
2022-12-06T19:26:41.088Z,4.93
2022-12-06T19:31:44.371Z,5
2022-12-06T19:36:47.605Z,5.08
2022-12-06T19:47:59.663Z,5.17
2022-12-06T19:53:04.277Z,5.14
2022-12-06T19:58:18.145Z,5.06
2022-12-06T20:03:24.607Z,5.09
2022-12-06T20:08:30.238Z,5.09
2022-12-06T20:13:34.302Z,5.17
2022-12-06T20:18:37.733Z,5.21
2022-12-06T20:23:41.429Z,5.18
2022-12-06T20:28:45.777Z,5.09
2022-12-06T20:33:49.137Z,5.12
2022-12-06T20:38:53.560Z,5.16
2022-12-06T20:43:56.955Z,5.24
2022-12-06T20:49:23.854Z,5.15
2022-12-06T20:54:27.152Z,5.1
2022-12-06T20:59:34.651Z,5.13
2022-12-06T21:04:39.312Z,5.11
2022-12-06T21:09:45.318Z,5.22
2022-12-06T21:14:51.379Z,5.13
2022-12-06T21:19:56.092Z,5.18
2022-12-06T21:24:59.513Z,5.1
2022-12-06T21:35:35.218Z,5.08
2022-12-06T21:40:41.059Z,5.05
2022-12-06T21:45:44.702Z,4.9
2022-12-06T21:50:54.580Z,4.88
2022-12-06T21:55:58.326Z,4.95
2022-12-06T22:01:03.666Z,4.89
2022-12-06T22:06:09.197Z,4.85
2022-12-06T22:11:14.825Z,5
2022-12-06T22:16:20.219Z,5.03
2022-12-06T22:21:23.531Z,4.79
2022-12-06T22:26:29.359Z,4.83
2022-12-06T22:31:32.580Z,4.66
2022-12-06T22:36:35.731Z,4.76
2022-12-06T22:41:38.946Z,4.7
2022-12-06T22:46:44.643Z,4.68
2022-12-06T22:51:50.220Z,4.72
2022-12-06T22:56:56.003Z,4.65
2022-12-06T23:02:01.522Z,4.72
2022-12-06T23:07:04.897Z,4.58
2022-12-06T23:12:10.417Z,4.45
2022-12-06T23:17:13.888Z,4.34
2022-12-06T23:22:19.556Z,4.3
2022-12-06T23:27:22.927Z,4.23
2022-12-06T23:32:26.068Z,4.18
2022-12-06T23:37:31.867Z,4.03
2022-12-06T23:42:35.496Z,4.1
2022-12-06T23:47:38.801Z,3.96
2022-12-06T23:52:42.216Z,3.87
2022-12-06T23:57:45.502Z,3.7
